sensor_id;sensor_type;location;lat;lon;timestamp;pressure;altitude;pressure_sealevel;temperature;humidity
57374;BME280;43964;53.890;25.340;2023-02-08T00:01:44;1049.8;;;1.2;58.7
57374;BME280;43964;53.890;25.340;2023-02-08T00:06:12;1049.8;;;1.1;58.4
57374;BME280;43964;53.890;25.340;2023-02-08T00:11:46;1049.9;;;0.8;58.6
57374;BME280;43964;53.890;25.340;2023-02-08T00:16:20;1049.9;;;0.8;58.9
57374;BME280;43964;53.890;25.340;2023-02-08T00:21:34;1050;;;0.8;59.1
57374;BME280;43964;53.890;25.340;2023-02-08T00:26:40;1049.9;;;0.8;59.1
57374;BME280;43964;53.890;25.340;2023-02-08T00:31:42;1049.9;;;0.8;58.9
57374;BME280;43964;53.890;25.340;2023-02-08T00:36:54;1050;;;0.7;59.2
57374;BME280;43964;53.890;25.340;2023-02-08T00:41:12;1050;;;0.8;59.2
57374;BME280;43964;53.890;25.340;2023-02-08T00:46:54;1050;;;0.9;59.1
57374;BME280;43964;53.890;25.340;2023-02-08T00:51:12;1050.1;;;0.7;58.8
57374;BME280;43964;53.890;25.340;2023-02-08T00:56:42;1050;;;0.7;58.8
57374;BME280;43964;53.890;25.340;2023-02-08T01:01:22;1050;;;0.6;58.8
57374;BME280;43964;53.890;25.340;2023-02-08T01:06:44;1050;;;0.6;59.1
57374;BME280;43964;53.890;25.340;2023-02-08T01:11:13;1050.1;;;0.5;59.2
57374;BME280;43964;53.890;25.340;2023-02-08T01:16:42;1050.1;;;0.3;59.5
57374;BME280;43964;53.890;25.340;2023-02-08T01:21:32;1050.2;;;0.4;59.7
57374;BME280;43964;53.890;25.340;2023-02-08T01:26:56;1050.2;;;0.6;59.7
57374;BME280;43964;53.890;25.340;2023-02-08T01:31:52;1050.3;;;0.7;59.7
57374;BME280;43964;53.890;25.340;2023-02-08T01:36:29;1050.3;;;0.8;59.7
57374;BME280;43964;53.890;25.340;2023-02-08T01:41:56;1050.3;;;0.9;59.7
57374;BME280;43964;53.890;25.340;2023-02-08T01:46:12;1050.3;;;1;59.6
57374;BME280;43964;53.890;25.340;2023-02-08T01:51:44;1050.3;;;1.1;59.7
57374;BME280;43964;53.890;25.340;2023-02-08T01:56:14;1050.4;;;1.1;59.6
57374;BME280;43964;53.890;25.340;2023-02-08T02:01:22;1050.4;;;1.2;59.6
57374;BME280;43964;53.890;25.340;2023-02-08T02:06:23;1050.4;;;1.2;59.3
57374;BME280;43964;53.890;25.340;2023-02-08T02:11:44;1050.4;;;1;59.6
57374;BME280;43964;53.890;25.340;2023-02-08T02:16:32;1050.5;;;1;59.6
57374;BME280;43964;53.890;25.340;2023-02-08T02:21:56;1050.5;;;1;59.5
57374;BME280;43964;53.890;25.340;2023-02-08T02:27:03;1050.5;;;0.9;59.4
57374;BME280;43964;53.890;25.340;2023-02-08T02:31:45;1050.5;;;0.8;59.3
57374;BME280;43964;53.890;25.340;2023-02-08T02:36:56;1050.5;;;0.6;59.6
57374;BME280;43964;53.890;25.340;2023-02-08T02:41:24;1050.6;;;0.7;59.9
57374;BME280;43964;53.890;25.340;2023-02-08T02:46:43;1050.6;;;0.8;59.9
57374;BME280;43964;53.890;25.340;2023-02-08T02:51:33;1050.6;;;0.8;59.9
57374;BME280;43964;53.890;25.340;2023-02-08T02:56:45;1050.6;;;0.8;59.9
57374;BME280;43964;53.890;25.340;2023-02-08T03:01:34;1050.7;;;1;60
57374;BME280;43964;53.890;25.340;2023-02-08T03:06:56;1050.7;;;1.1;59.9
57374;BME280;43964;53.890;25.340;2023-02-08T03:11:14;1050.8;;;1.1;59.8
57374;BME280;43964;53.890;25.340;2023-02-08T03:16:59;1050.8;;;1.2;59.7
57374;BME280;43964;53.890;25.340;2023-02-08T03:21:41;1050.8;;;1.2;59.6
57374;BME280;43964;53.890;25.340;2023-02-08T03:26:14;1050.8;;;1.3;59.4
57374;BME280;43964;53.890;25.340;2023-02-08T03:31:37;1050.9;;;1.3;59.4
57374;BME280;43964;53.890;25.340;2023-02-08T03:36:23;1051;;;1.4;59.4
57374;BME280;43964;53.890;25.340;2023-02-08T03:41:43;1051.1;;;1.5;59.3
57374;BME280;43964;53.890;25.340;2023-02-08T03:46:13;1051.1;;;1.5;59.2
57374;BME280;43964;53.890;25.340;2023-02-08T03:51:32;1051.1;;;1.5;59.1
57374;BME280;43964;53.890;25.340;2023-02-08T03:56:33;1051.2;;;1.4;59.3
57374;BME280;43964;53.890;25.340;2023-02-08T04:01:54;1051.2;;;1.5;59.3
57374;BME280;43964;53.890;25.340;2023-02-08T04:06:34;1051.3;;;1.5;59.1
57374;BME280;43964;53.890;25.340;2023-02-08T04:11:54;1051.3;;;1.4;59.2
57374;BME280;43964;53.890;25.340;2023-02-08T04:16:12;1051.3;;;1.4;59.4
57374;BME280;43964;53.890;25.340;2023-02-08T04:21:22;1051.4;;;1.3;59.1
57374;BME280;43964;53.890;25.340;2023-02-08T04:26:12;1051.4;;;1.2;59.4
57374;BME280;43964;53.890;25.340;2023-02-08T04:31:12;1051.3;;;1.2;59.5
57374;BME280;43964;53.890;25.340;2023-02-08T04:36:56;1051.4;;;1.3;59.6
57374;BME280;43964;53.890;25.340;2023-02-08T04:41:56;1051.5;;;1.3;59.5
57374;BME280;43964;53.890;25.340;2023-02-08T04:46:32;1051.5;;;1.2;59.4
57374;BME280;43964;53.890;25.340;2023-02-08T04:51:42;1051.5;;;1.1;59.6
57374;BME280;43964;53.890;25.340;2023-02-08T04:56:56;1051.5;;;1.1;59.9
57374;BME280;43964;53.890;25.340;2023-02-08T05:01:34;1051.5;;;1.1;60
57374;BME280;43964;53.890;25.340;2023-02-08T05:06:12;1051.5;;;1.1;60
57374;BME280;43964;53.890;25.340;2023-02-08T05:11:56;1051.5;;;1.1;60
57374;BME280;43964;53.890;25.340;2023-02-08T05:16:24;1051.5;;;1.1;60.2
57374;BME280;43964;53.890;25.340;2023-02-08T05:21:36;1051.5;;;1;60.4
57374;BME280;43964;53.890;25.340;2023-02-08T05:26:36;1051.6;;;1;60.7
57374;BME280;43964;53.890;25.340;2023-02-08T05:31:54;1051.6;;;1.1;60.7
57374;BME280;43964;53.890;25.340;2023-02-08T05:37:00;1051.6;;;1.1;60.7
57374;BME280;43964;53.890;25.340;2023-02-08T05:41:32;1051.6;;;1.1;61
57374;BME280;43964;53.890;25.340;2023-02-08T05:46:58;1051.6;;;1.2;60.8
57374;BME280;43964;53.890;25.340;2023-02-08T05:51:56;1051.6;;;1.2;60.9
57374;BME280;43964;53.890;25.340;2023-02-08T05:56:36;1051.6;;;1.3;60.9
57374;BME280;43964;53.890;25.340;2023-02-08T06:01:22;1051.7;;;1.3;61
57374;BME280;43964;53.890;25.340;2023-02-08T06:06:58;1051.7;;;1.2;60.9
57374;BME280;43964;53.890;25.340;2023-02-08T06:11:12;1051.8;;;1.2;60.7
57374;BME280;43964;53.890;25.340;2023-02-08T06:16:12;1051.9;;;1.1;61.2
57374;BME280;43964;53.890;25.340;2023-02-08T06:21:12;1051.9;;;1.2;61.1
57374;BME280;43964;53.890;25.340;2023-02-08T06:26:30;1051.8;;;1.1;61.4
57374;BME280;43964;53.890;25.340;2023-02-08T06:31:56;1051.9;;;1.1;61.3
57374;BME280;43964;53.890;25.340;2023-02-08T06:36:30;1051.9;;;1.1;61.4
57374;BME280;43964;53.890;25.340;2023-02-08T06:41:56;1051.9;;;1.2;61.6
57374;BME280;43964;53.890;25.340;2023-02-08T06:46:48;1051.9;;;1.3;61.5
57374;BME280;43964;53.890;25.340;2023-02-08T06:51:46;1051.9;;;1.4;61.7
57374;BME280;43964;53.890;25.340;2023-02-08T06:56:24;1051.9;;;1.5;61.6
57374;BME280;43964;53.890;25.340;2023-02-08T07:01:12;1051.9;;;1.5;61.5
57374;BME280;43964;53.890;25.340;2023-02-08T07:06:30;1051.8;;;1.6;61.6
57374;BME280;43964;53.890;25.340;2023-02-08T07:11:32;1051.7;;;1.6;61.6
57374;BME280;43964;53.890;25.340;2023-02-08T07:16:40;1051.9;;;1.8;61.5
57374;BME280;43964;53.890;25.340;2023-02-08T07:21:42;1051.9;;;1.9;61.6
57374;BME280;43964;53.890;25.340;2023-02-08T07:26:56;1052;;;1.9;61.5
57374;BME280;43964;53.890;25.340;2023-02-08T07:31:32;1052;;;1.9;61.5
57374;BME280;43964;53.890;25.340;2023-02-08T07:36:58;1052;;;2;61.5
57374;BME280;43964;53.890;25.340;2023-02-08T07:41:12;1052;;;2.1;61.4
57374;BME280;43964;53.890;25.340;2023-02-08T07:46:42;1052;;;2.2;61.1
57374;BME280;43964;53.890;25.340;2023-02-08T07:51:12;1052;;;2.2;61.1
57374;BME280;43964;53.890;25.340;2023-02-08T07:56:48;1052.1;;;2.3;61
57374;BME280;43964;53.890;25.340;2023-02-08T08:01:18;1052.2;;;2.4;60.9
57374;BME280;43964;53.890;25.340;2023-02-08T08:06:30;1052.3;;;2.5;60.8
57374;BME280;43964;53.890;25.340;2023-02-08T08:11:42;1052.2;;;2.5;60.6
57374;BME280;43964;53.890;25.340;2023-02-08T08:16:54;1052.2;;;2.6;60.4
57374;BME280;43964;53.890;25.340;2023-02-08T08:21:54;1052.2;;;2.8;60.4
57374;BME280;43964;53.890;25.340;2023-02-08T08:26:44;1052.3;;;2.8;60.2
57374;BME280;43964;53.890;25.340;2023-02-08T08:31:52;1052.4;;;2.9;60.1
57374;BME280;43964;53.890;25.340;2023-02-08T08:36:22;1052.5;;;3.1;59.7
57374;BME280;43964;53.890;25.340;2023-02-08T08:41:40;1052.5;;;3.1;59.8
57374;BME280;43964;53.890;25.340;2023-02-08T08:46:22;1052.5;;;3;59.6
57374;BME280;43964;53.890;25.340;2023-02-08T08:51:44;1052.6;;;3.1;59.4
57374;BME280;43964;53.890;25.340;2023-02-08T08:56:36;1052.6;;;3.2;59.2
57374;BME280;43964;53.890;25.340;2023-02-08T09:01:38;1052.6;;;3.3;59.2
57374;BME280;43964;53.890;25.340;2023-02-08T09:06:44;1052.7;;;3.7;59
57374;BME280;43964;53.890;25.340;2023-02-08T09:11:54;1052.7;;;3.9;58.8
57374;BME280;43964;53.890;25.340;2023-02-08T09:16:58;1052.7;;;3.8;58.6
57374;BME280;43964;53.890;25.340;2023-02-08T09:21:44;1052.7;;;3.8;58.5
57374;BME280;43964;53.890;25.340;2023-02-08T09:26:52;1052.6;;;4;58.3
57374;BME280;43964;53.890;25.340;2023-02-08T09:31:23;1052.6;;;4.1;58
57374;BME280;43964;53.890;25.340;2023-02-08T09:36:39;1052.5;;;3.9;57.9
57374;BME280;43964;53.890;25.340;2023-02-08T09:41:28;1052.6;;;3.5;58.1
57374;BME280;43964;53.890;25.340;2023-02-08T09:46:48;1052.5;;;3.1;58.3
57374;BME280;43964;53.890;25.340;2023-02-08T09:51:37;1052.5;;;3;58.4
57374;BME280;43964;53.890;25.340;2023-02-08T09:56:58;1052.5;;;3.1;58.3
57374;BME280;43964;53.890;25.340;2023-02-08T10:01:36;1052.5;;;3.2;58.2
57374;BME280;43964;53.890;25.340;2023-02-08T10:06:56;1052.5;;;3.5;58
57374;BME280;43964;53.890;25.340;2023-02-08T10:11:51;1052.5;;;3.7;57.9
57374;BME280;43964;53.890;25.340;2023-02-08T10:16:16;1052.4;;;3.9;57.7
57374;BME280;43964;53.890;25.340;2023-02-08T10:21:38;1052.4;;;4;57.5
57374;BME280;43964;53.890;25.340;2023-02-08T10:26:13;1052.4;;;4;57.4
57374;BME280;43964;53.890;25.340;2023-02-08T10:31:44;1052.4;;;4;57.3
57374;BME280;43964;53.890;25.340;2023-02-08T10:36:38;1052.2;;;4;56.9
57374;BME280;43964;53.890;25.340;2023-02-08T10:41:36;1052.2;;;4.1;56.7
57374;BME280;43964;53.890;25.340;2023-02-08T10:46:26;1052.1;;;4.2;56.8
57374;BME280;43964;53.890;25.340;2023-02-08T10:52:02;1052.1;;;4.2;56.6
57374;BME280;43964;53.890;25.340;2023-02-08T10:56:39;1052.1;;;4.2;56.5
57374;BME280;43964;53.890;25.340;2023-02-08T11:01:46;1052;;;3.9;56.4
57374;BME280;43964;53.890;25.340;2023-02-08T11:06:50;1052;;;3.7;56.7
57374;BME280;43964;53.890;25.340;2023-02-08T11:11:12;1052;;;3.6;56.4
57374;BME280;43964;53.890;25.340;2023-02-08T11:16:36;1051.9;;;3.8;56.4
57374;BME280;43964;53.890;25.340;2023-02-08T11:21:25;1051.9;;;3.7;56.2
57374;BME280;43964;53.890;25.340;2023-02-08T11:27:00;1052;;;3.8;56.3
57374;BME280;43964;53.890;25.340;2023-02-08T11:32:01;1051.8;;;3.8;55.7
57374;BME280;43964;53.890;25.340;2023-02-08T11:36:20;1051.8;;;3.8;56
57374;BME280;43964;53.890;25.340;2023-02-08T11:42:00;1051.8;;;3.8;55.8
57374;BME280;43964;53.890;25.340;2023-02-08T11:47:01;1051.8;;;3.8;55.5
57374;BME280;43964;53.890;25.340;2023-02-08T11:51:13;1051.7;;;3.8;55.5
57374;BME280;43964;53.890;25.340;2023-02-08T11:56:15;1051.7;;;4;55.5
57374;BME280;43964;53.890;25.340;2023-02-08T12:01:56;1051.7;;;4.2;55
57374;BME280;43964;53.890;25.340;2023-02-08T12:11:37;1051.7;;;4;54.3
57374;BME280;43964;53.890;25.340;2023-02-08T12:16:28;1051.6;;;4;54.6
57374;BME280;43964;53.890;25.340;2023-02-08T12:21:48;1051.7;;;4;54.4
57374;BME280;43964;53.890;25.340;2023-02-08T12:26:54;1051.7;;;3.7;54.4
57374;BME280;43964;53.890;25.340;2023-02-08T12:31:38;1051.7;;;3.8;54
57374;BME280;43964;53.890;25.340;2023-02-08T12:37:04;1051.7;;;3.8;54.2
57374;BME280;43964;53.890;25.340;2023-02-08T12:41:49;1051.6;;;3.7;54
57374;BME280;43964;53.890;25.340;2023-02-08T12:46:59;1051.5;;;3.7;53.7
57374;BME280;43964;53.890;25.340;2023-02-08T12:51:15;1051.6;;;3.8;53.9
57374;BME280;43964;53.890;25.340;2023-02-08T12:56:13;1051.5;;;3.8;53.7
57374;BME280;43964;53.890;25.340;2023-02-08T13:01:13;1051.6;;;3.6;53.9
57374;BME280;43964;53.890;25.340;2023-02-08T13:06:38;1051.5;;;3.3;53.7
57374;BME280;43964;53.890;25.340;2023-02-08T13:11:26;1051.5;;;3.3;53.6
57374;BME280;43964;53.890;25.340;2023-02-08T13:16:49;1051.5;;;3.3;53.6
57374;BME280;43964;53.890;25.340;2023-02-08T13:21:38;1051.4;;;3.3;53.7
57374;BME280;43964;53.890;25.340;2023-02-08T13:26:25;1051.4;;;3.3;53.7
57374;BME280;43964;53.890;25.340;2023-02-08T13:32:03;1051.5;;;3.4;53.6
57374;BME280;43964;53.890;25.340;2023-02-08T13:36:41;1051.5;;;3.4;53.4
57374;BME280;43964;53.890;25.340;2023-02-08T13:41:49;1051.4;;;3.2;53.3
57374;BME280;43964;53.890;25.340;2023-02-08T13:46:23;1051.4;;;3.2;53.3
57374;BME280;43964;53.890;25.340;2023-02-08T13:51:51;1051.2;;;3.3;53.4
57374;BME280;43964;53.890;25.340;2023-02-08T13:56:36;1051.2;;;3.5;53.4
57374;BME280;43964;53.890;25.340;2023-02-08T14:01:38;1051.1;;;3.5;53.2
57374;BME280;43964;53.890;25.340;2023-02-08T14:06:42;1051.1;;;3.6;53.3
57374;BME280;43964;53.890;25.340;2023-02-08T14:11:49;1051.2;;;3.7;53.1
57374;BME280;43964;53.890;25.340;2023-02-08T14:17:13;1051.2;;;3.7;53.2
57374;BME280;43964;53.890;25.340;2023-02-08T14:21:36;1051.2;;;3.8;52.9
57374;BME280;43964;53.890;25.340;2023-02-08T14:27:04;1051.2;;;3.8;53.1
57374;BME280;43964;53.890;25.340;2023-02-08T14:31:12;1051.2;;;3.6;53.1
57374;BME280;43964;53.890;25.340;2023-02-08T14:36:44;1051.3;;;3.4;53.2
57374;BME280;43964;53.890;25.340;2023-02-08T14:41:17;1051.2;;;3.3;53.3
57374;BME280;43964;53.890;25.340;2023-02-08T14:46:48;1051.3;;;3.3;53.3
57374;BME280;43964;53.890;25.340;2023-02-08T14:51:14;1051.3;;;3.3;53.4
57374;BME280;43964;53.890;25.340;2023-02-08T14:56:26;1051.2;;;3.3;53.4
57374;BME280;43964;53.890;25.340;2023-02-08T15:01:43;1051.2;;;3.2;53.4
57374;BME280;43964;53.890;25.340;2023-02-08T15:07:05;1051.3;;;3.1;53.5
57374;BME280;43964;53.890;25.340;2023-02-08T15:11:59;1051.3;;;2.9;53.5
57374;BME280;43964;53.890;25.340;2023-02-08T15:16:47;1051.3;;;2.9;53.6
57374;BME280;43964;53.890;25.340;2023-02-08T15:22:17;1051.3;;;2.9;53.6
57374;BME280;43964;53.890;25.340;2023-02-08T15:26:22;1051.3;;;2.9;53.6
57374;BME280;43964;53.890;25.340;2023-02-08T15:31:46;1051.3;;;2.8;53.6
57374;BME280;43964;53.890;25.340;2023-02-08T15:36:13;1051.3;;;2.8;53.7
57374;BME280;43964;53.890;25.340;2023-02-08T15:41:48;1051.3;;;2.8;53.7
57374;BME280;43964;53.890;25.340;2023-02-08T15:46:16;1051.3;;;2.7;53.7
57374;BME280;43964;53.890;25.340;2023-02-08T15:52:00;1051.3;;;2.7;53.7
57374;BME280;43964;53.890;25.340;2023-02-08T15:56:25;1051.3;;;2.6;53.8
57374;BME280;43964;53.890;25.340;2023-02-08T16:02:01;1051.3;;;2.6;53.8
57374;BME280;43964;53.890;25.340;2023-02-08T16:06:47;1051.2;;;2.6;53.8
57374;BME280;43964;53.890;25.340;2023-02-08T16:11:14;1051.2;;;2.5;53.7
57374;BME280;43964;53.890;25.340;2023-02-08T16:16:49;1051.2;;;2.3;53.7
57374;BME280;43964;53.890;25.340;2023-02-08T16:21:27;1051;;;2.3;53.9
57374;BME280;43964;53.890;25.340;2023-02-08T16:26:48;1050.8;;;2.3;53.9
57374;BME280;43964;53.890;25.340;2023-02-08T16:31:40;1050.9;;;2.3;53.9
57374;BME280;43964;53.890;25.340;2023-02-08T16:36:38;1051;;;2.3;53.9
57374;BME280;43964;53.890;25.340;2023-02-08T16:42:43;1050.9;;;2.3;54
57374;BME280;43964;53.890;25.340;2023-02-08T16:47:00;1050.8;;;2.4;54
57374;BME280;43964;53.890;25.340;2023-02-08T16:51:27;1050.7;;;2.4;54
57374;BME280;43964;53.890;25.340;2023-02-08T16:56:35;1050.6;;;2.3;54
57374;BME280;43964;53.890;25.340;2023-02-08T17:01:40;1050.6;;;2.2;54.1
57374;BME280;43964;53.890;25.340;2023-02-08T17:06:39;1050.5;;;2.2;54.1
57374;BME280;43964;53.890;25.340;2023-02-08T17:11:40;1050.5;;;2.2;54.1
57374;BME280;43964;53.890;25.340;2023-02-08T17:16:29;1050.5;;;2.2;54.2
57374;BME280;43964;53.890;25.340;2023-02-08T17:21:48;1050.6;;;2.3;54.2
57374;BME280;43964;53.890;25.340;2023-02-08T17:26:39;1050.5;;;2.4;54.1
57374;BME280;43964;53.890;25.340;2023-02-08T17:31:28;1050.4;;;2.4;54.1
57374;BME280;43964;53.890;25.340;2023-02-08T17:36:24;1050.5;;;2.4;54
57374;BME280;43964;53.890;25.340;2023-02-08T17:42:02;1050.5;;;2.3;54
57374;BME280;43964;53.890;25.340;2023-02-08T17:46:41;1050.5;;;2.2;54
57374;BME280;43964;53.890;25.340;2023-02-08T17:51:50;1050.4;;;2.1;54
57374;BME280;43964;53.890;25.340;2023-02-08T17:56:38;1050.5;;;2.2;54.1
57374;BME280;43964;53.890;25.340;2023-02-08T18:01:23;1050.5;;;2.2;54.1
57374;BME280;43964;53.890;25.340;2023-02-08T18:06:26;1050.4;;;2.2;54
57374;BME280;43964;53.890;25.340;2023-02-08T18:11:24;1050.4;;;2.2;54.1
57374;BME280;43964;53.890;25.340;2023-02-08T18:17:02;1050.4;;;2.3;54.1
57374;BME280;43964;53.890;25.340;2023-02-08T18:22:03;1050.2;;;2.2;54.1
57374;BME280;43964;53.890;25.340;2023-02-08T18:26:24;1050.2;;;2.3;54.3
57374;BME280;43964;53.890;25.340;2023-02-08T18:31:52;1050;;;2.4;54.3
57374;BME280;43964;53.890;25.340;2023-02-08T18:36:46;1050.1;;;2.4;54.3
57374;BME280;43964;53.890;25.340;2023-02-08T18:41:39;1050.2;;;2.5;54.2
57374;BME280;43964;53.890;25.340;2023-02-08T18:46:14;1050.2;;;2.5;54.2
57374;BME280;43964;53.890;25.340;2023-02-08T18:52:05;1050.2;;;2.6;54
57374;BME280;43964;53.890;25.340;2023-02-08T18:56:39;1050.1;;;2.6;54
57374;BME280;43964;53.890;25.340;2023-02-08T19:01:13;1050.2;;;2.5;53.9
57374;BME280;43964;53.890;25.340;2023-02-08T19:06:13;1050.2;;;2.5;54
57374;BME280;43964;53.890;25.340;2023-02-08T19:11:48;1050.2;;;2.5;54
57374;BME280;43964;53.890;25.340;2023-02-08T19:16:50;1050.2;;;2.6;54
57374;BME280;43964;53.890;25.340;2023-02-08T19:21:13;1050.1;;;2.6;53.9
57374;BME280;43964;53.890;25.340;2023-02-08T19:27:00;1050;;;2.6;53.9
57374;BME280;43964;53.890;25.340;2023-02-08T19:31:34;1050;;;2.7;53.8
57374;BME280;43964;53.890;25.340;2023-02-08T19:37:02;1049.9;;;2.7;53.8
57374;BME280;43964;53.890;25.340;2023-02-08T19:41:14;1049.8;;;2.7;53.8
57374;BME280;43964;53.890;25.340;2023-02-08T19:46:23;1049.8;;;2.7;53.8
57374;BME280;43964;53.890;25.340;2023-02-08T19:51:12;1049.8;;;2.7;53.8
57374;BME280;43964;53.890;25.340;2023-02-08T19:56:13;1049.7;;;2.4;54
57374;BME280;43964;53.890;25.340;2023-02-08T20:01:46;1049.7;;;2.2;54.2
57374;BME280;43964;53.890;25.340;2023-02-08T20:06:48;1049.7;;;2.2;54.1
57374;BME280;43964;53.890;25.340;2023-02-08T20:12:02;1049.7;;;2.2;54.3
57374;BME280;43964;53.890;25.340;2023-02-08T20:16:20;1049.6;;;2.1;54.5
57374;BME280;43964;53.890;25.340;2023-02-08T20:22:00;1049.6;;;2.1;54.7
57374;BME280;43964;53.890;25.340;2023-02-08T20:26:13;1049.5;;;2.1;54.8
57374;BME280;43964;53.890;25.340;2023-02-08T20:31:47;1049.5;;;2;54.8
57374;BME280;43964;53.890;25.340;2023-02-08T20:36:27;1049.5;;;1.9;54.7
57374;BME280;43964;53.890;25.340;2023-02-08T20:42:04;1049.4;;;1.9;54.8
57374;BME280;43964;53.890;25.340;2023-02-08T20:46:25;1049.4;;;2;54.8
57374;BME280;43964;53.890;25.340;2023-02-08T20:51:51;1049.4;;;2.1;54.8
57374;BME280;43964;53.890;25.340;2023-02-08T20:56:51;1049.4;;;2.1;54.6
57374;BME280;43964;53.890;25.340;2023-02-08T21:02:00;1049.3;;;2;54.4
57374;BME280;43964;53.890;25.340;2023-02-08T21:07:02;1049.2;;;1.9;54.5
57374;BME280;43964;53.890;25.340;2023-02-08T21:11:38;1049.1;;;1.9;54.9
57374;BME280;43964;53.890;25.340;2023-02-08T21:17:02;1049.1;;;2.1;54.9
57374;BME280;43964;53.890;25.340;2023-02-08T21:21:26;1049.1;;;2.2;54.8
57374;BME280;43964;53.890;25.340;2023-02-08T21:26:46;1049.1;;;2.3;54.7
57374;BME280;43964;53.890;25.340;2023-02-08T21:31:13;1049.1;;;2.2;54.6
57374;BME280;43964;53.890;25.340;2023-02-08T21:36:36;1049.2;;;2.2;54.6
57374;BME280;43964;53.890;25.340;2023-02-08T21:41:27;1049.1;;;2;54.5
57374;BME280;43964;53.890;25.340;2023-02-08T21:46:48;1049;;;1.9;54.9
57374;BME280;43964;53.890;25.340;2023-02-08T21:51:46;1048.9;;;1.9;54.9
57374;BME280;43964;53.890;25.340;2023-02-08T21:57:04;1048.9;;;1.9;54.8
57374;BME280;43964;53.890;25.340;2023-02-08T22:02:00;1048.9;;;1.8;54.9
57374;BME280;43964;53.890;25.340;2023-02-08T22:06:46;1048.9;;;1.7;54.9
57374;BME280;43964;53.890;25.340;2023-02-08T22:11:58;1048.9;;;1.6;55
57374;BME280;43964;53.890;25.340;2023-02-08T22:16:38;1048.9;;;1.6;55
57374;BME280;43964;53.890;25.340;2023-02-08T22:21:22;1048.8;;;1.6;55.4
57374;BME280;43964;53.890;25.340;2023-02-08T22:26:26;1048.9;;;1.8;55.4
57374;BME280;43964;53.890;25.340;2023-02-08T22:31:48;1048.8;;;1.9;55.3
57374;BME280;43964;53.890;25.340;2023-02-08T22:36:38;1048.8;;;2;55.2
57374;BME280;43964;53.890;25.340;2023-02-08T22:42:00;1048.8;;;2.1;55.1
57374;BME280;43964;53.890;25.340;2023-02-08T22:46:38;1048.6;;;2.1;54.9
57374;BME280;43964;53.890;25.340;2023-02-08T22:52:03;1048.6;;;2;54.9
57374;BME280;43964;53.890;25.340;2023-02-08T22:56:38;1048.5;;;1.7;54.7
57374;BME280;43964;53.890;25.340;2023-02-08T23:01:14;1048.5;;;1.6;55.2
57374;BME280;43964;53.890;25.340;2023-02-08T23:06:38;1048.4;;;1.6;55.5
57374;BME280;43964;53.890;25.340;2023-02-08T23:11:12;1048.4;;;1.7;55.5
57374;BME280;43964;53.890;25.340;2023-02-08T23:16:48;1048.4;;;1.6;55.5
57374;BME280;43964;53.890;25.340;2023-02-08T23:21:14;1048.4;;;1.6;55.4
57374;BME280;43964;53.890;25.340;2023-02-08T23:26:26;1048.3;;;1.5;55.5
57374;BME280;43964;53.890;25.340;2023-02-08T23:31:24;1048.3;;;1.6;55.6
57374;BME280;43964;53.890;25.340;2023-02-08T23:36:52;1048.3;;;1.7;55.5
57374;BME280;43964;53.890;25.340;2023-02-08T23:41:40;1048.3;;;1.9;55.4
57374;BME280;43964;53.890;25.340;2023-02-08T23:46:48;1048.2;;;2;55.3
57374;BME280;43964;53.890;25.340;2023-02-08T23:51:38;1048.3;;;1.9;55.3
57374;BME280;43964;53.890;25.340;2023-02-08T23:56:48;1048.2;;;1.9;55.3
